sensor_id;sensor_type;location;lat;lon;timestamp;pressure;altitude;pressure_sealevel;temperature;humidity
13486;BME280;6815;59.336;17.998;2022-07-19T00:02:16;100744.88;;;16.17;84.23
13486;BME280;6815;59.336;17.998;2022-07-19T00:04:42;100734.38;;;16.13;84.04
13486;BME280;6815;59.336;17.998;2022-07-19T00:07:07;100773.59;;;16.31;84.62
13486;BME280;6815;59.336;17.998;2022-07-19T00:09:33;100739.06;;;16.06;85.21
13486;BME280;6815;59.336;17.998;2022-07-19T00:11:58;100719.97;;;15.95;85.08
13486;BME280;6815;59.336;17.998;2022-07-19T00:14:24;100776.72;;;16.19;85.73
13486;BME280;6815;59.336;17.998;2022-07-19T00:16:49;100775.00;;;16.18;86.13
13486;BME280;6815;59.336;17.998;2022-07-19T00:19:15;100764.25;;;16.21;86.03
13486;BME280;6815;59.336;17.998;2022-07-19T00:21:40;100765.28;;;16.17;86.34
13486;BME280;6815;59.336;17.998;2022-07-19T00:24:07;100737.56;;;15.99;86.26
13486;BME280;6815;59.336;17.998;2022-07-19T00:26:32;100741.63;;;16.09;85.71
13486;BME280;6815;59.336;17.998;2022-07-19T00:28:59;100751.44;;;16.31;84.91
13486;BME280;6815;59.336;17.998;2022-07-19T00:31:26;100740.44;;;16.16;85.41
13486;BME280;6815;59.336;17.998;2022-07-19T00:33:51;100737.16;;;15.86;86.68
13486;BME280;6815;59.336;17.998;2022-07-19T00:36:17;100779.00;;;16.06;87.18
13486;BME280;6815;59.336;17.998;2022-07-19T00:38:44;100779.41;;;16.19;86.59
13486;BME280;6815;59.336;17.998;2022-07-19T00:41:09;100762.38;;;16.00;87.06
13486;BME280;6815;59.336;17.998;2022-07-19T00:43:35;100752.44;;;16.05;86.91
13486;BME280;6815;59.336;17.998;2022-07-19T00:46:01;100780.50;;;16.13;87.35
13486;BME280;6815;59.336;17.998;2022-07-19T00:48:26;100753.78;;;15.93;87.84
13486;BME280;6815;59.336;17.998;2022-07-19T00:50:52;100764.94;;;16.03;87.68
13486;BME280;6815;59.336;17.998;2022-07-19T00:53:18;100781.59;;;16.08;87.87
13486;BME280;6815;59.336;17.998;2022-07-19T00:55:44;100779.09;;;16.03;88.50
13486;BME280;6815;59.336;17.998;2022-07-19T00:58:10;100758.50;;;15.85;88.96
13486;BME280;6815;59.336;17.998;2022-07-19T01:00:37;100759.13;;;15.68;89.91
13486;BME280;6815;59.336;17.998;2022-07-19T01:03:06;100787.69;;;16.11;88.63
13486;BME280;6815;59.336;17.998;2022-07-19T01:05:33;100762.56;;;16.18;87.29
13486;BME280;6815;59.336;17.998;2022-07-19T01:07:59;100777.31;;;16.27;87.40
13486;BME280;6815;59.336;17.998;2022-07-19T01:10:26;100779.28;;;16.22;87.76
13486;BME280;6815;59.336;17.998;2022-07-19T01:12:51;100761.25;;;15.82;89.33
13486;BME280;6815;59.336;17.998;2022-07-19T01:15:22;100745.03;;;15.89;88.95
13486;BME280;6815;59.336;17.998;2022-07-19T01:17:48;100761.00;;;16.13;87.98
13486;BME280;6815;59.336;17.998;2022-07-19T01:20:15;100749.06;;;16.23;86.86
13486;BME280;6815;59.336;17.998;2022-07-19T01:22:44;100775.25;;;16.12;88.46
13486;BME280;6815;59.336;17.998;2022-07-19T01:25:10;100779.28;;;15.99;89.75
13486;BME280;6815;59.336;17.998;2022-07-19T01:27:41;100758.69;;;15.80;90.72
13486;BME280;6815;59.336;17.998;2022-07-19T01:30:18;100765.69;;;16.06;89.32
13486;BME280;6815;59.336;17.998;2022-07-19T01:32:44;100778.56;;;15.93;90.62
13486;BME280;6815;59.336;17.998;2022-07-19T01:35:12;100774.53;;;15.83;91.23
13486;BME280;6815;59.336;17.998;2022-07-19T01:37:38;100768.03;;;15.90;90.29
13486;BME280;6815;59.336;17.998;2022-07-19T01:40:05;100778.38;;;15.75;91.97
13486;BME280;6815;59.336;17.998;2022-07-19T01:42:31;100751.97;;;15.43;93.10
13486;BME280;6815;59.336;17.998;2022-07-19T01:44:57;100769.84;;;15.65;93.27
13486;BME280;6815;59.336;17.998;2022-07-19T01:47:23;100782.13;;;15.69;93.63
13486;BME280;6815;59.336;17.998;2022-07-19T01:49:49;100780.47;;;15.65;93.65
13486;BME280;6815;59.336;17.998;2022-07-19T01:52:14;100743.38;;;15.35;94.28
13486;BME280;6815;59.336;17.998;2022-07-19T01:54:40;100756.31;;;15.46;94.62
13486;BME280;6815;59.336;17.998;2022-07-19T01:57:05;100772.94;;;15.53;94.73
13486;BME280;6815;59.336;17.998;2022-07-19T01:59:31;100768.75;;;15.45;95.36
13486;BME280;6815;59.336;17.998;2022-07-19T02:01:57;100788.44;;;15.65;94.85
13486;BME280;6815;59.336;17.998;2022-07-19T02:04:22;100790.34;;;15.61;95.09
13486;BME280;6815;59.336;17.998;2022-07-19T02:06:48;100781.50;;;15.36;96.47
13486;BME280;6815;59.336;17.998;2022-07-19T02:09:13;100789.47;;;15.36;97.25
13486;BME280;6815;59.336;17.998;2022-07-19T02:11:38;100769.28;;;15.30;97.42
13486;BME280;6815;59.336;17.998;2022-07-19T02:14:06;100779.81;;;15.33;97.67
13486;BME280;6815;59.336;17.998;2022-07-19T02:16:32;100785.50;;;15.47;97.26
13486;BME280;6815;59.336;17.998;2022-07-19T02:18:58;100785.81;;;15.38;97.96
13486;BME280;6815;59.336;17.998;2022-07-19T02:21:23;100760.34;;;15.33;97.57
13486;BME280;6815;59.336;17.998;2022-07-19T02:23:48;100791.09;;;15.40;98.10
13486;BME280;6815;59.336;17.998;2022-07-19T02:26:14;100785.66;;;15.43;97.90
13486;BME280;6815;59.336;17.998;2022-07-19T02:28:39;100763.75;;;15.36;97.83
13486;BME280;6815;59.336;17.998;2022-07-19T02:31:06;100796.25;;;15.44;98.37
13486;BME280;6815;59.336;17.998;2022-07-19T02:33:31;100793.00;;;15.36;98.38
13486;BME280;6815;59.336;17.998;2022-07-19T02:35:58;100794.78;;;15.36;98.74
13486;BME280;6815;59.336;17.998;2022-07-19T02:38:23;100801.56;;;15.44;98.67
13486;BME280;6815;59.336;17.998;2022-07-19T02:40:49;100782.78;;;15.24;99.94
13486;BME280;6815;59.336;17.998;2022-07-19T02:43:14;100782.00;;;15.20;100.00
13486;BME280;6815;59.336;17.998;2022-07-19T02:45:40;100797.78;;;15.25;100.00
13486;BME280;6815;59.336;17.998;2022-07-19T02:48:05;100790.03;;;15.19;100.00
13486;BME280;6815;59.336;17.998;2022-07-19T02:50:31;100790.41;;;15.08;100.00
13486;BME280;6815;59.336;17.998;2022-07-19T02:52:57;100802.72;;;15.11;100.00
13486;BME280;6815;59.336;17.998;2022-07-19T02:55:23;100784.13;;;15.11;100.00
13486;BME280;6815;59.336;17.998;2022-07-19T02:57:48;100798.06;;;15.17;100.00
13486;BME280;6815;59.336;17.998;2022-07-19T03:00:14;100793.66;;;15.16;100.00
13486;BME280;6815;59.336;17.998;2022-07-19T03:02:39;100810.25;;;15.23;100.00
13486;BME280;6815;59.336;17.998;2022-07-19T03:05:06;100808.50;;;15.23;100.00
13486;BME280;6815;59.336;17.998;2022-07-19T03:07:32;100790.75;;;15.24;100.00
13486;BME280;6815;59.336;17.998;2022-07-19T03:09:57;100809.16;;;15.30;100.00
13486;BME280;6815;59.336;17.998;2022-07-19T03:12:23;100783.31;;;15.07;100.00
13486;BME280;6815;59.336;17.998;2022-07-19T03:14:48;100791.16;;;15.12;100.00
13486;BME280;6815;59.336;17.998;2022-07-19T03:17:13;100812.03;;;15.22;100.00
13486;BME280;6815;59.336;17.998;2022-07-19T03:19:39;100809.03;;;15.33;100.00
13486;BME280;6815;59.336;17.998;2022-07-19T03:22:04;100806.28;;;15.36;100.00
13486;BME280;6815;59.336;17.998;2022-07-19T03:24:30;100787.25;;;15.22;100.00
13486;BME280;6815;59.336;17.998;2022-07-19T03:26:55;100794.75;;;15.11;100.00
13486;BME280;6815;59.336;17.998;2022-07-19T03:29:20;100802.97;;;15.30;100.00
13486;BME280;6815;59.336;17.998;2022-07-19T03:31:46;100785.78;;;15.13;100.00
13486;BME280;6815;59.336;17.998;2022-07-19T03:34:11;100814.84;;;15.44;100.00
13486;BME280;6815;59.336;17.998;2022-07-19T03:36:37;100774.25;;;15.14;100.00
13486;BME280;6815;59.336;17.998;2022-07-19T03:39:03;100798.34;;;15.35;100.00
13486;BME280;6815;59.336;17.998;2022-07-19T03:41:29;100822.47;;;15.55;100.00
13486;BME280;6815;59.336;17.998;2022-07-19T03:43:54;100783.94;;;15.42;100.00
13486;BME280;6815;59.336;17.998;2022-07-19T03:46:19;100808.16;;;15.59;100.00
13486;BME280;6815;59.336;17.998;2022-07-19T03:48:46;100806.66;;;15.50;100.00
13486;BME280;6815;59.336;17.998;2022-07-19T03:51:12;100782.16;;;15.42;100.00
13486;BME280;6815;59.336;17.998;2022-07-19T03:53:37;100817.09;;;15.57;100.00
13486;BME280;6815;59.336;17.998;2022-07-19T03:56:03;100814.63;;;15.50;100.00
13486;BME280;6815;59.336;17.998;2022-07-19T03:58:30;100820.47;;;15.62;100.00
13486;BME280;6815;59.336;17.998;2022-07-19T04:00:56;100811.72;;;15.58;100.00
13486;BME280;6815;59.336;17.998;2022-07-19T04:03:21;100814.97;;;15.68;100.00
13486;BME280;6815;59.336;17.998;2022-07-19T04:05:47;100819.03;;;15.78;100.00
13486;BME280;6815;59.336;17.998;2022-07-19T04:08:12;100818.31;;;15.73;100.00
13486;BME280;6815;59.336;17.998;2022-07-19T04:10:40;100822.00;;;15.69;100.00
13486;BME280;6815;59.336;17.998;2022-07-19T04:13:07;100816.66;;;15.70;100.00
13486;BME280;6815;59.336;17.998;2022-07-19T04:15:33;100812.78;;;15.79;100.00
13486;BME280;6815;59.336;17.998;2022-07-19T04:17:58;100822.19;;;15.89;100.00
13486;BME280;6815;59.336;17.998;2022-07-19T04:20:23;100840.63;;;15.94;100.00
13486;BME280;6815;59.336;17.998;2022-07-19T04:22:49;100798.09;;;15.69;100.00
13486;BME280;6815;59.336;17.998;2022-07-19T04:25:14;100811.28;;;15.72;100.00
13486;BME280;6815;59.336;17.998;2022-07-19T04:27:40;100803.56;;;15.89;100.00
13486;BME280;6815;59.336;17.998;2022-07-19T04:30:06;100821.59;;;16.30;100.00
13486;BME280;6815;59.336;17.998;2022-07-19T04:32:32;100839.03;;;16.60;98.92
13486;BME280;6815;59.336;17.998;2022-07-19T04:34:59;100837.63;;;16.75;97.26
13486;BME280;6815;59.336;17.998;2022-07-19T04:37:24;100826.13;;;16.73;97.42
13486;BME280;6815;59.336;17.998;2022-07-19T04:39:49;100824.75;;;16.86;96.48
13486;BME280;6815;59.336;17.998;2022-07-19T04:42:15;100835.06;;;16.96;96.07
13486;BME280;6815;59.336;17.998;2022-07-19T04:44:40;100819.28;;;16.66;95.94
13486;BME280;6815;59.336;17.998;2022-07-19T04:47:05;100813.97;;;16.66;95.93
13486;BME280;6815;59.336;17.998;2022-07-19T04:49:31;100814.72;;;16.70;96.70
13486;BME280;6815;59.336;17.998;2022-07-19T04:51:56;100800.38;;;16.50;97.56
13486;BME280;6815;59.336;17.998;2022-07-19T04:54:22;100830.50;;;16.98;96.08
13486;BME280;6815;59.336;17.998;2022-07-19T04:56:47;100820.41;;;17.28;94.08
13486;BME280;6815;59.336;17.998;2022-07-19T04:59:13;100815.75;;;17.53;92.07
13486;BME280;6815;59.336;17.998;2022-07-19T05:01:39;100815.06;;;17.91;89.30
13486;BME280;6815;59.336;17.998;2022-07-19T05:04:04;100824.94;;;18.28;87.51
13486;BME280;6815;59.336;17.998;2022-07-19T05:06:30;100848.13;;;18.46;86.53
13486;BME280;6815;59.336;17.998;2022-07-19T05:08:56;100828.16;;;18.74;84.35
13486;BME280;6815;59.336;17.998;2022-07-19T05:11:22;100839.13;;;18.87;83.38
13486;BME280;6815;59.336;17.998;2022-07-19T05:13:48;100832.06;;;19.39;79.92
13486;BME280;6815;59.336;17.998;2022-07-19T05:16:13;100843.41;;;19.08;81.94
13486;BME280;6815;59.336;17.998;2022-07-19T05:18:38;100832.13;;;19.21;80.42
13486;BME280;6815;59.336;17.998;2022-07-19T05:21:04;100850.25;;;20.02;77.99
13486;BME280;6815;59.336;17.998;2022-07-19T05:23:29;100840.38;;;19.70;77.90
13486;BME280;6815;59.336;17.998;2022-07-19T05:25:55;100834.38;;;19.82;76.79
13486;BME280;6815;59.336;17.998;2022-07-19T05:28:20;100852.34;;;19.80;77.63
13486;BME280;6815;59.336;17.998;2022-07-19T05:30:45;100869.63;;;20.25;76.01
13486;BME280;6815;59.336;17.998;2022-07-19T05:33:11;100857.09;;;20.25;74.38
13486;BME280;6815;59.336;17.998;2022-07-19T05:35:36;100884.19;;;20.86;71.90
13486;BME280;6815;59.336;17.998;2022-07-19T05:38:03;100864.78;;;20.96;70.46
13486;BME280;6815;59.336;17.998;2022-07-19T05:40:28;100898.31;;;21.37;70.11
13486;BME280;6815;59.336;17.998;2022-07-19T05:42:54;100863.06;;;21.27;68.69
13486;BME280;6815;59.336;17.998;2022-07-19T05:45:19;100853.72;;;21.34;68.89
13486;BME280;6815;59.336;17.998;2022-07-19T05:47:45;100885.75;;;21.53;68.38
13486;BME280;6815;59.336;17.998;2022-07-19T05:50:10;100872.25;;;22.13;65.97
13486;BME280;6815;59.336;17.998;2022-07-19T05:52:35;100860.28;;;21.75;66.76
13486;BME280;6815;59.336;17.998;2022-07-19T05:55:01;100868.69;;;21.68;66.63
13486;BME280;6815;59.336;17.998;2022-07-19T05:57:26;100874.81;;;21.56;66.24
13486;BME280;6815;59.336;17.998;2022-07-19T05:59:52;100872.50;;;21.50;66.41
13486;BME280;6815;59.336;17.998;2022-07-19T06:02:19;100865.31;;;21.51;66.06
13486;BME280;6815;59.336;17.998;2022-07-19T06:04:44;100880.34;;;21.83;65.13
13486;BME280;6815;59.336;17.998;2022-07-19T06:07:10;100885.59;;;22.15;64.12
13486;BME280;6815;59.336;17.998;2022-07-19T06:09:35;100859.97;;;21.65;64.95
13486;BME280;6815;59.336;17.998;2022-07-19T06:12:00;100852.81;;;22.24;64.56
13486;BME280;6815;59.336;17.998;2022-07-19T06:14:26;100902.38;;;22.63;62.65
13486;BME280;6815;59.336;17.998;2022-07-19T06:16:51;100884.78;;;22.29;63.23
13486;BME280;6815;59.336;17.998;2022-07-19T06:21:44;100885.09;;;21.94;64.38
13486;BME280;6815;59.336;17.998;2022-07-19T06:24:09;100905.25;;;21.71;64.91
13486;BME280;6815;59.336;17.998;2022-07-19T06:26:34;100901.78;;;21.99;64.66
13486;BME280;6815;59.336;17.998;2022-07-19T06:29:00;100886.34;;;21.42;65.38
13486;BME280;6815;59.336;17.998;2022-07-19T06:31:25;100908.78;;;21.71;65.05
13486;BME280;6815;59.336;17.998;2022-07-19T06:33:52;100894.16;;;21.77;64.56
13486;BME280;6815;59.336;17.998;2022-07-19T06:36:18;100905.38;;;21.84;64.26
13486;BME280;6815;59.336;17.998;2022-07-19T06:38:44;100923.94;;;22.03;64.08
13486;BME280;6815;59.336;17.998;2022-07-19T06:41:11;100919.94;;;21.49;64.32
13486;BME280;6815;59.336;17.998;2022-07-19T06:43:38;100913.13;;;21.44;65.12
13486;BME280;6815;59.336;17.998;2022-07-19T06:46:03;100897.91;;;21.59;63.83
13486;BME280;6815;59.336;17.998;2022-07-19T06:48:29;100914.22;;;21.86;64.09
13486;BME280;6815;59.336;17.998;2022-07-19T06:50:54;100918.75;;;22.00;63.69
13486;BME280;6815;59.336;17.998;2022-07-19T06:53:20;100902.03;;;21.80;63.13
13486;BME280;6815;59.336;17.998;2022-07-19T06:55:45;100931.06;;;22.04;63.47
13486;BME280;6815;59.336;17.998;2022-07-19T06:58:11;100926.72;;;22.17;63.87
13486;BME280;6815;59.336;17.998;2022-07-19T07:00:37;100934.53;;;22.64;62.59
13486;BME280;6815;59.336;17.998;2022-07-19T07:03:03;100937.81;;;22.41;61.82
13486;BME280;6815;59.336;17.998;2022-07-19T07:05:28;100953.94;;;22.70;62.56
13486;BME280;6815;59.336;17.998;2022-07-19T07:07:53;100946.34;;;22.48;62.09
13486;BME280;6815;59.336;17.998;2022-07-19T07:10:20;100939.44;;;21.83;63.21
13486;BME280;6815;59.336;17.998;2022-07-19T07:12:45;100926.56;;;21.74;63.50
13486;BME280;6815;59.336;17.998;2022-07-19T07:15:11;100939.41;;;21.69;63.90
13486;BME280;6815;59.336;17.998;2022-07-19T07:17:37;100914.16;;;21.71;63.69
13486;BME280;6815;59.336;17.998;2022-07-19T07:20:04;100937.00;;;21.94;62.83
13486;BME280;6815;59.336;17.998;2022-07-19T07:22:31;100928.53;;;21.86;62.30
13486;BME280;6815;59.336;17.998;2022-07-19T07:24:56;100940.03;;;21.88;62.48
13486;BME280;6815;59.336;17.998;2022-07-19T07:27:22;100943.72;;;21.56;62.99
13486;BME280;6815;59.336;17.998;2022-07-19T07:29:47;100939.44;;;21.83;62.62
13486;BME280;6815;59.336;17.998;2022-07-19T07:32:13;100947.28;;;21.72;62.64
13486;BME280;6815;59.336;17.998;2022-07-19T07:34:39;100952.75;;;21.23;64.04
13486;BME280;6815;59.336;17.998;2022-07-19T07:37:04;100943.50;;;21.13;64.11
13486;BME280;6815;59.336;17.998;2022-07-19T07:39:29;100950.06;;;21.23;63.87
13486;BME280;6815;59.336;17.998;2022-07-19T07:41:55;100951.88;;;21.22;63.64
13486;BME280;6815;59.336;17.998;2022-07-19T07:44:20;100939.94;;;21.12;63.93
13486;BME280;6815;59.336;17.998;2022-07-19T07:46:46;100951.34;;;21.00;64.39
13486;BME280;6815;59.336;17.998;2022-07-19T07:49:11;100949.94;;;21.24;63.47
13486;BME280;6815;59.336;17.998;2022-07-19T07:51:37;100955.41;;;21.23;63.71
13486;BME280;6815;59.336;17.998;2022-07-19T07:54:02;100960.13;;;21.35;62.70
13486;BME280;6815;59.336;17.998;2022-07-19T07:56:28;100937.59;;;21.54;61.43
13486;BME280;6815;59.336;17.998;2022-07-19T07:58:53;100946.97;;;21.62;61.60
13486;BME280;6815;59.336;17.998;2022-07-19T08:01:19;100949.03;;;21.57;62.11
13486;BME280;6815;59.336;17.998;2022-07-19T08:03:45;100950.78;;;21.42;62.29
13486;BME280;6815;59.336;17.998;2022-07-19T08:06:10;100944.94;;;21.02;63.27
13486;BME280;6815;59.336;17.998;2022-07-19T08:08:36;100923.63;;;20.84;63.53
13486;BME280;6815;59.336;17.998;2022-07-19T08:11:02;100950.84;;;20.93;64.43
13486;BME280;6815;59.336;17.998;2022-07-19T08:13:29;100931.69;;;20.99;63.21
13486;BME280;6815;59.336;17.998;2022-07-19T08:15:54;100942.72;;;20.77;63.63
13486;BME280;6815;59.336;17.998;2022-07-19T08:18:20;100927.88;;;20.72;63.78
13486;BME280;6815;59.336;17.998;2022-07-19T08:20:45;100937.28;;;20.79;63.59
13486;BME280;6815;59.336;17.998;2022-07-19T08:23:10;100952.75;;;20.74;63.65
13486;BME280;6815;59.336;17.998;2022-07-19T08:25:36;100934.13;;;20.38;64.66
13486;BME280;6815;59.336;17.998;2022-07-19T08:28:03;100951.78;;;20.59;64.23
13486;BME280;6815;59.336;17.998;2022-07-19T08:30:28;100941.25;;;20.56;63.73
13486;BME280;6815;59.336;17.998;2022-07-19T08:32:54;100968.34;;;20.83;63.41
13486;BME280;6815;59.336;17.998;2022-07-19T08:35:19;100950.81;;;20.43;64.37
13486;BME280;6815;59.336;17.998;2022-07-19T08:37:45;100970.63;;;20.58;63.94
13486;BME280;6815;59.336;17.998;2022-07-19T08:40:11;100962.84;;;20.53;63.84
13486;BME280;6815;59.336;17.998;2022-07-19T08:42:37;100966.13;;;20.58;64.16
13486;BME280;6815;59.336;17.998;2022-07-19T08:45:05;100972.22;;;20.77;63.32
13486;BME280;6815;59.336;17.998;2022-07-19T08:47:31;100953.97;;;20.68;63.73
13486;BME280;6815;59.336;17.998;2022-07-19T08:50:01;100968.16;;;20.70;63.53
13486;BME280;6815;59.336;17.998;2022-07-19T08:52:28;100970.06;;;20.68;63.26
13486;BME280;6815;59.336;17.998;2022-07-19T08:54:54;100963.44;;;20.58;63.55
13486;BME280;6815;59.336;17.998;2022-07-19T08:57:20;100979.84;;;20.52;63.80
13486;BME280;6815;59.336;17.998;2022-07-19T09:00:05;100991.56;;;20.49;63.25
13486;BME280;6815;59.336;17.998;2022-07-19T09:02:30;100997.03;;;20.48;63.36
13486;BME280;6815;59.336;17.998;2022-07-19T09:05:07;100982.22;;;20.41;63.49
13486;BME280;6815;59.336;17.998;2022-07-19T09:07:39;100998.75;;;20.49;63.87
13486;BME280;6815;59.336;17.998;2022-07-19T09:10:18;101001.34;;;20.50;63.57
13486;BME280;6815;59.336;17.998;2022-07-19T09:13:03;100989.22;;;20.43;63.62
13486;BME280;6815;59.336;17.998;2022-07-19T09:15:48;101000.38;;;20.53;63.62
13486;BME280;6815;59.336;17.998;2022-07-19T09:20:51;100996.06;;;20.49;62.54
13486;BME280;6815;59.336;17.998;2022-07-19T09:23:18;101009.94;;;20.40;62.78
13486;BME280;6815;59.336;17.998;2022-07-19T09:28:19;101016.44;;;20.18;62.54
13486;BME280;6815;59.336;17.998;2022-07-19T09:30:48;101017.59;;;20.13;62.67
13486;BME280;6815;59.336;17.998;2022-07-19T09:33:16;101021.22;;;20.29;62.27
13486;BME280;6815;59.336;17.998;2022-07-19T09:35:48;101004.66;;;20.21;62.33
13486;BME280;6815;59.336;17.998;2022-07-19T09:38:21;101015.31;;;20.22;62.64
13486;BME280;6815;59.336;17.998;2022-07-19T09:40:48;101014.69;;;20.34;62.62
13486;BME280;6815;59.336;17.998;2022-07-19T09:43:14;101014.59;;;20.36;63.01
13486;BME280;6815;59.336;17.998;2022-07-19T09:45:40;101022.25;;;20.44;63.06
13486;BME280;6815;59.336;17.998;2022-07-19T09:48:06;101012.69;;;20.21;63.40
13486;BME280;6815;59.336;17.998;2022-07-19T09:50:31;101016.97;;;20.25;62.94
13486;BME280;6815;59.336;17.998;2022-07-19T09:53:06;101025.16;;;20.04;63.51
13486;BME280;6815;59.336;17.998;2022-07-19T09:55:32;101026.56;;;19.94;63.58
13486;BME280;6815;59.336;17.998;2022-07-19T09:57:58;101007.56;;;19.81;64.29
13486;BME280;6815;59.336;17.998;2022-07-19T10:00:25;101009.88;;;20.06;64.28
13486;BME280;6815;59.336;17.998;2022-07-19T10:02:57;101021.69;;;20.20;62.87
13486;BME280;6815;59.336;17.998;2022-07-19T10:05:24;101012.78;;;20.37;62.13
13486;BME280;6815;59.336;17.998;2022-07-19T10:07:50;101021.63;;;20.39;62.28
13486;BME280;6815;59.336;17.998;2022-07-19T10:10:18;101013.09;;;20.30;62.13
13486;BME280;6815;59.336;17.998;2022-07-19T10:12:46;101019.03;;;20.37;62.40
13486;BME280;6815;59.336;17.998;2022-07-19T10:15:15;101012.88;;;20.35;62.31
13486;BME280;6815;59.336;17.998;2022-07-19T10:20:25;101026.44;;;20.67;61.54
13486;BME280;6815;59.336;17.998;2022-07-19T10:22:51;101024.06;;;20.43;61.97
13486;BME280;6815;59.336;17.998;2022-07-19T10:25:17;101039.69;;;20.52;61.96
13486;BME280;6815;59.336;17.998;2022-07-19T10:27:47;101038.75;;;20.53;62.27
13486;BME280;6815;59.336;17.998;2022-07-19T10:32:44;101047.41;;;20.76;61.96
13486;BME280;6815;59.336;17.998;2022-07-19T10:38:07;101044.09;;;20.71;61.30
13486;BME280;6815;59.336;17.998;2022-07-19T10:40:36;101043.84;;;20.75;61.49
13486;BME280;6815;59.336;17.998;2022-07-19T10:45:31;101052.75;;;20.93;61.07
13486;BME280;6815;59.336;17.998;2022-07-19T10:47:59;101045.72;;;20.91;60.72
13486;BME280;6815;59.336;17.998;2022-07-19T10:51:02;101051.59;;;20.82;60.84
13486;BME280;6815;59.336;17.998;2022-07-19T10:56:22;101044.97;;;20.54;61.49
13486;BME280;6815;59.336;17.998;2022-07-19T11:01:22;101042.03;;;20.59;61.87
13486;BME280;6815;59.336;17.998;2022-07-19T11:03:50;101050.88;;;20.78;61.11
13486;BME280;6815;59.336;17.998;2022-07-19T11:06:27;101054.63;;;20.91;60.28
13486;BME280;6815;59.336;17.998;2022-07-19T11:08:54;101055.59;;;20.90;60.00
13486;BME280;6815;59.336;17.998;2022-07-19T11:11:21;101037.00;;;20.70;60.09
13486;BME280;6815;59.336;17.998;2022-07-19T11:13:51;101050.84;;;20.95;59.15
13486;BME280;6815;59.336;17.998;2022-07-19T11:16:18;101045.50;;;20.78;58.68
13486;BME280;6815;59.336;17.998;2022-07-19T11:18:45;101052.81;;;20.74;59.64
13486;BME280;6815;59.336;17.998;2022-07-19T11:21:12;101055.75;;;20.70;60.14
13486;BME280;6815;59.336;17.998;2022-07-19T11:23:39;101061.03;;;20.71;60.49
13486;BME280;6815;59.336;17.998;2022-07-19T11:26:07;101045.53;;;20.61;59.49
13486;BME280;6815;59.336;17.998;2022-07-19T11:28:33;101058.13;;;20.76;59.61
13486;BME280;6815;59.336;17.998;2022-07-19T11:31:00;101035.13;;;20.72;59.72
13486;BME280;6815;59.336;17.998;2022-07-19T11:33:25;101031.38;;;20.74;59.58
13486;BME280;6815;59.336;17.998;2022-07-19T11:35:59;101062.31;;;20.82;59.21
13486;BME280;6815;59.336;17.998;2022-07-19T11:41:15;101055.53;;;20.57;59.73
13486;BME280;6815;59.336;17.998;2022-07-19T11:43:42;101043.59;;;20.45;59.97
13486;BME280;6815;59.336;17.998;2022-07-19T11:46:08;101058.88;;;20.62;59.60
13486;BME280;6815;59.336;17.998;2022-07-19T11:48:34;101049.38;;;20.55;59.81
13486;BME280;6815;59.336;17.998;2022-07-19T11:51:07;101053.50;;;20.62;59.15
13486;BME280;6815;59.336;17.998;2022-07-19T11:53:35;101057.09;;;20.78;58.72
13486;BME280;6815;59.336;17.998;2022-07-19T11:56:01;101060.66;;;20.79;58.25
13486;BME280;6815;59.336;17.998;2022-07-19T11:58:26;101070.78;;;20.90;58.68
13486;BME280;6815;59.336;17.998;2022-07-19T12:00:52;101064.56;;;20.89;58.12
13486;BME280;6815;59.336;17.998;2022-07-19T12:03:24;101066.88;;;20.79;58.61
13486;BME280;6815;59.336;17.998;2022-07-19T12:06:03;101076.97;;;20.74;59.22
13486;BME280;6815;59.336;17.998;2022-07-19T12:08:43;101074.91;;;20.79;58.79
13486;BME280;6815;59.336;17.998;2022-07-19T12:13:41;101072.72;;;20.70;58.78
13486;BME280;6815;59.336;17.998;2022-07-19T12:16:08;101076.63;;;20.80;58.76
13486;BME280;6815;59.336;17.998;2022-07-19T12:19:09;101043.59;;;20.45;58.67
13486;BME280;6815;59.336;17.998;2022-07-19T12:21:40;101052.13;;;20.71;58.78
13486;BME280;6815;59.336;17.998;2022-07-19T12:27:04;101073.69;;;21.02;57.92
13486;BME280;6815;59.336;17.998;2022-07-19T12:32:02;101083.28;;;20.91;58.06
13486;BME280;6815;59.336;17.998;2022-07-19T12:34:28;101084.84;;;20.95;57.85
13486;BME280;6815;59.336;17.998;2022-07-19T12:36:54;101089.78;;;21.02;57.64
13486;BME280;6815;59.336;17.998;2022-07-19T12:39:29;101091.88;;;20.97;57.64
13486;BME280;6815;59.336;17.998;2022-07-19T12:42:05;101090.34;;;21.09;57.17
13486;BME280;6815;59.336;17.998;2022-07-19T12:44:33;101081.25;;;21.12;56.50
13486;BME280;6815;59.336;17.998;2022-07-19T12:46:59;101072.06;;;21.00;56.47
13486;BME280;6815;59.336;17.998;2022-07-19T12:49:25;101077.59;;;20.97;56.25
13486;BME280;6815;59.336;17.998;2022-07-19T12:51:51;101090.94;;;21.14;56.31
13486;BME280;6815;59.336;17.998;2022-07-19T12:54:17;101106.84;;;21.35;56.91
13486;BME280;6815;59.336;17.998;2022-07-19T12:56:43;101070.69;;;21.09;55.75
13486;BME280;6815;59.336;17.998;2022-07-19T12:59:08;101091.25;;;21.25;56.05
13486;BME280;6815;59.336;17.998;2022-07-19T13:01:52;101116.22;;;21.43;56.11
13486;BME280;6815;59.336;17.998;2022-07-19T13:04:18;101089.13;;;21.15;55.72
13486;BME280;6815;59.336;17.998;2022-07-19T13:06:43;101111.22;;;21.20;55.01
13486;BME280;6815;59.336;17.998;2022-07-19T13:09:09;101126.56;;;21.34;55.18
13486;BME280;6815;59.336;17.998;2022-07-19T13:11:35;101107.75;;;21.35;55.20
13486;BME280;6815;59.336;17.998;2022-07-19T13:14:01;101129.75;;;21.24;54.71
13486;BME280;6815;59.336;17.998;2022-07-19T13:16:26;101123.16;;;21.14;55.50
13486;BME280;6815;59.336;17.998;2022-07-19T13:18:53;101116.06;;;21.13;55.84
13486;BME280;6815;59.336;17.998;2022-07-19T13:21:19;101112.53;;;20.95;55.92